createdAt,value
2023-01-29T00:02:06.803Z,6.28
2023-01-29T00:04:34.155Z,5.60
2023-01-29T00:07:00.843Z,5.78
2023-01-29T00:09:28.464Z,6.53
2023-01-29T00:11:55.079Z,6.18
2023-01-29T00:14:21.844Z,5.90
2023-01-29T00:16:48.705Z,6.10
2023-01-29T00:19:15.332Z,7.07
2023-01-29T00:21:42.010Z,6.50
2023-01-29T00:24:08.795Z,6.07
2023-01-29T00:26:35.450Z,6.43
2023-01-29T00:29:02.668Z,6.47
2023-01-29T00:31:29.616Z,9.75
2023-01-29T00:33:56.987Z,10.75
2023-01-29T00:36:24.904Z,8.73
2023-01-29T00:38:58.487Z,8.27
2023-01-29T00:41:48.990Z,23.42
2023-01-29T00:44:34.552Z,12.35
2023-01-29T00:47:01.399Z,6.47
2023-01-29T00:49:28.148Z,6.85
2023-01-29T00:52:13.471Z,6.13
2023-01-29T00:54:40.063Z,6.47
2023-01-29T00:57:06.704Z,6.70
2023-01-29T00:59:33.353Z,7.75
2023-01-29T01:02:18.748Z,6.57
2023-01-29T01:04:45.504Z,6.10
2023-01-29T01:07:15.085Z,6.68
2023-01-29T01:10:00.428Z,13.00
2023-01-29T01:12:28.415Z,8.40
2023-01-29T01:14:55.119Z,6.38
2023-01-29T01:17:21.885Z,5.75
2023-01-29T01:19:48.609Z,6.65
2023-01-29T01:22:15.240Z,6.07
2023-01-29T01:24:41.964Z,6.50
2023-01-29T01:27:08.905Z,6.60
2023-01-29T01:29:35.691Z,7.13
2023-01-29T01:32:02.465Z,10.65
2023-01-29T01:34:29.483Z,6.78
2023-01-29T01:36:56.282Z,9.68
2023-01-29T01:39:23.695Z,6.88
2023-01-29T01:41:53.501Z,6.15
2023-01-29T01:44:53.361Z,5.95
2023-01-29T01:47:43.035Z,6.45
2023-01-29T01:50:16.105Z,7.03
2023-01-29T01:52:48.302Z,6.70
2023-01-29T01:55:19.455Z,7.22
2023-01-29T01:57:50.698Z,7.10
2023-01-29T02:00:20.197Z,7.30
2023-01-29T02:03:07.017Z,6.53
2023-01-29T02:05:53.515Z,7.22
2023-01-29T02:08:48.494Z,5.50
2023-01-29T02:11:15.339Z,4.32
2023-01-29T02:13:42.708Z,7.10
2023-01-29T02:16:09.391Z,6.22
2023-01-29T02:18:38.066Z,6.78
2023-01-29T02:21:43.584Z,6.25
2023-01-29T02:24:16.437Z,6.05
2023-01-29T02:27:10.779Z,5.72
2023-01-29T02:29:48.131Z,4.68
2023-01-29T02:32:37.191Z,4.63
2023-01-29T02:35:31.976Z,6.35
2023-01-29T02:38:04.432Z,5.68
2023-01-29T02:40:40.370Z,6.65
2023-01-29T02:43:30.111Z,6.78
2023-01-29T02:46:08.257Z,7.13
2023-01-29T02:48:44.601Z,7.88
2023-01-29T02:51:20.787Z,10.43
2023-01-29T02:54:03.187Z,6.95
2023-01-29T02:56:44.095Z,6.80
2023-01-29T02:59:36.659Z,6.55
2023-01-29T03:04:42.603Z,6.40
2023-01-29T03:07:45.781Z,6.70
2023-01-29T03:10:24.627Z,6.15
2023-01-29T03:12:59.755Z,7.25
2023-01-29T03:15:38.526Z,6.82
2023-01-29T03:18:18.811Z,6.20
2023-01-29T03:20:50.286Z,9.30
2023-01-29T03:23:27.204Z,3.63
2023-01-29T03:26:15.270Z,4.45
2023-01-29T03:29:02.594Z,3.38
2023-01-29T03:31:50.040Z,3.90
2023-01-29T03:34:28.319Z,4.82
2023-01-29T03:36:59.076Z,4.30
2023-01-29T03:39:30.584Z,5.18
2023-01-29T03:41:59.984Z,4.45
2023-01-29T03:44:49.030Z,4.65
2023-01-29T03:47:22.786Z,4.45
2023-01-29T03:50:07.633Z,3.92
2023-01-29T03:52:56.425Z,4.63
2023-01-29T03:55:31.071Z,5.50
2023-01-29T03:58:04.194Z,5.13
2023-01-29T04:00:41.539Z,4.68
2023-01-29T04:03:12.941Z,5.43
2023-01-29T04:06:05.423Z,5.00
2023-01-29T04:08:36.029Z,4.90
2023-01-29T04:11:09.491Z,5.00
2023-01-29T04:13:36.656Z,5.32
2023-01-29T04:16:06.764Z,4.28
2023-01-29T04:18:33.640Z,4.05
2023-01-29T04:21:01.215Z,4.55
2023-01-29T04:23:28.022Z,3.40
2023-01-29T04:26:12.934Z,4.18
2023-01-29T04:28:53.825Z,4.13
2023-01-29T04:31:26.075Z,4.00
2023-01-29T04:36:53.794Z,3.20
2023-01-29T04:39:46.500Z,3.28
2023-01-29T04:42:22.814Z,4.10
2023-01-29T04:45:11.332Z,4.60
2023-01-29T04:48:23.460Z,3.08
2023-01-29T04:51:12.454Z,3.92
2023-01-29T04:53:51.073Z,3.95
2023-01-29T04:56:26.228Z,4.00
2023-01-29T04:59:02.035Z,4.07
2023-01-29T05:01:33.034Z,3.92
2023-01-29T05:04:04.526Z,3.78
2023-01-29T05:06:32.608Z,4.57
2023-01-29T05:09:01.448Z,3.67
2023-01-29T05:11:32.061Z,4.15
2023-01-29T05:14:02.329Z,3.20
2023-01-29T05:16:41.992Z,3.88
2023-01-29T05:19:14.020Z,4.18
2023-01-29T05:21:44.301Z,4.25
2023-01-29T05:24:23.071Z,3.58
2023-01-29T05:27:10.670Z,3.92
2023-01-29T05:29:38.634Z,3.50
2023-01-29T05:32:05.465Z,3.65
2023-01-29T05:34:32.153Z,8.10
2023-01-29T05:36:58.815Z,5.43
2023-01-29T05:39:25.504Z,5.18
2023-01-29T05:41:54.587Z,4.25
2023-01-29T05:44:21.307Z,4.20
2023-01-29T05:46:47.965Z,4.07
2023-01-29T05:49:14.706Z,4.53
2023-01-29T05:51:41.358Z,4.57
2023-01-29T05:54:08.004Z,4.10
2023-01-29T05:56:34.648Z,4.60
2023-01-29T05:59:01.337Z,4.07
2023-01-29T06:01:28.001Z,4.55
2023-01-29T06:03:54.646Z,4.63
2023-01-29T06:06:22.435Z,5.03
2023-01-29T06:08:49.233Z,4.80
2023-01-29T06:11:18.207Z,4.25
2023-01-29T06:13:48.264Z,4.18
2023-01-29T06:16:15.399Z,4.30
2023-01-29T06:18:42.695Z,3.75
2023-01-29T06:21:12.122Z,4.72
2023-01-29T06:23:38.782Z,3.55
2023-01-29T06:26:08.105Z,4.38
2023-01-29T06:28:35.940Z,4.18
2023-01-29T06:31:22.119Z,4.25
2023-01-29T06:33:51.236Z,4.15
2023-01-29T06:36:18.053Z,4.20
2023-01-29T06:38:44.816Z,4.85
2023-01-29T06:41:13.953Z,8.30
2023-01-29T06:43:43.496Z,9.05
2023-01-29T06:46:10.172Z,5.85
2023-01-29T06:48:36.874Z,6.50
2023-01-29T06:51:05.803Z,5.15
2023-01-29T06:53:34.143Z,5.00
2023-01-29T06:56:01.612Z,5.00
2023-01-29T06:58:28.446Z,5.50
2023-01-29T07:01:02.289Z,4.20
2023-01-29T07:03:29.012Z,6.55
2023-01-29T07:05:56.850Z,6.85
2023-01-29T07:08:23.462Z,7.90
2023-01-29T07:10:50.607Z,10.57
2023-01-29T07:13:17.605Z,6.72
2023-01-29T07:15:44.574Z,4.60
2023-01-29T07:18:14.077Z,4.70
2023-01-29T07:20:41.938Z,4.80
2023-01-29T07:23:13.627Z,4.72
2023-01-29T07:25:40.829Z,5.45
2023-01-29T07:28:07.978Z,5.03
2023-01-29T07:30:34.741Z,4.90
2023-01-29T07:33:11.457Z,4.57
2023-01-29T07:35:40.046Z,4.97
2023-01-29T07:38:08.659Z,4.93
2023-01-29T07:40:35.836Z,5.90
2023-01-29T07:43:05.336Z,4.15
2023-01-29T07:45:34.598Z,4.18
2023-01-29T07:48:01.393Z,5.10
2023-01-29T07:50:28.149Z,15.32
2023-01-29T07:52:55.058Z,11.65
2023-01-29T07:55:21.904Z,10.65
2023-01-29T07:57:54.753Z,10.15
2023-01-29T08:00:21.951Z,7.47
2023-01-29T08:02:48.642Z,4.78
2023-01-29T08:05:15.348Z,5.32
2023-01-29T08:07:42.000Z,5.43
2023-01-29T08:10:09.351Z,5.05
2023-01-29T08:12:36.020Z,12.10
2023-01-29T08:15:02.923Z,7.13
2023-01-29T08:17:29.635Z,6.50
2023-01-29T08:19:56.371Z,6.60
2023-01-29T08:22:23.166Z,4.72
2023-01-29T08:24:54.383Z,4.88
2023-01-29T08:27:26.975Z,4.60
2023-01-29T08:29:53.651Z,4.88
2023-01-29T08:32:20.336Z,6.55
2023-01-29T08:34:47.388Z,6.18
2023-01-29T08:37:14.196Z,7.13
2023-01-29T08:42:12.432Z,4.47
2023-01-29T08:44:39.172Z,4.85
2023-01-29T08:47:05.839Z,6.05
2023-01-29T08:49:32.503Z,5.32
2023-01-29T08:52:00.451Z,5.63
2023-01-29T08:54:28.390Z,6.40
2023-01-29T08:56:55.396Z,8.50
2023-01-29T08:59:22.873Z,5.07
2023-01-29T09:01:51.636Z,6.03
2023-01-29T09:04:18.290Z,6.60
2023-01-29T09:06:45.061Z,6.15
2023-01-29T09:09:11.928Z,14.05
2023-01-29T09:11:40.504Z,5.30
2023-01-29T09:14:07.226Z,5.50
2023-01-29T09:16:34.038Z,5.68
2023-01-29T09:19:00.788Z,5.53
2023-01-29T09:21:27.383Z,6.15
2023-01-29T09:23:54.092Z,5.88
2023-01-29T09:26:20.744Z,6.65
2023-01-29T09:28:47.387Z,6.97
2023-01-29T09:31:14.144Z,6.00
2023-01-29T09:33:40.856Z,6.97
2023-01-29T09:36:07.786Z,6.72
2023-01-29T09:38:34.423Z,6.93
2023-01-29T09:41:35.283Z,6.30
2023-01-29T09:44:20.923Z,6.22
2023-01-29T09:46:51.437Z,5.90
2023-01-29T09:49:52.136Z,6.70
2023-01-29T09:52:30.040Z,6.63
2023-01-29T09:55:26.634Z,6.65
2023-01-29T09:58:04.742Z,9.63
2023-01-29T10:00:54.376Z,11.00
2023-01-29T10:03:46.631Z,7.35
2023-01-29T10:06:31.564Z,6.30
2023-01-29T10:09:01.172Z,6.55
2023-01-29T10:11:39.882Z,8.32
2023-01-29T10:14:21.318Z,8.30
2023-01-29T10:17:02.882Z,8.05
2023-01-29T10:20:17.124Z,6.37
2023-01-29T10:22:46.549Z,7.03
2023-01-29T10:25:19.407Z,6.55
2023-01-29T10:27:51.189Z,6.10
2023-01-29T10:30:31.052Z,6.85
2023-01-29T10:33:05.964Z,9.52
2023-01-29T10:35:53.383Z,8.23
2023-01-29T10:38:34.159Z,7.60
2023-01-29T10:41:09.765Z,7.53
2023-01-29T10:43:54.477Z,7.63
2023-01-29T10:46:35.524Z,7.72
2023-01-29T10:49:16.928Z,7.45
2023-01-29T10:51:46.447Z,6.55
2023-01-29T10:54:27.108Z,6.80
2023-01-29T10:57:19.919Z,7.03
2023-01-29T10:59:58.273Z,7.95
2023-01-29T11:02:25.051Z,6.03
2023-01-29T11:04:51.829Z,7.30
2023-01-29T11:07:21.762Z,6.60
2023-01-29T11:09:51.473Z,8.25
2023-01-29T11:12:24.820Z,6.25
2023-01-29T11:15:01.793Z,7.70
2023-01-29T11:17:28.443Z,6.70
2023-01-29T11:19:55.857Z,5.60
2023-01-29T11:22:28.194Z,7.30
2023-01-29T11:27:46.281Z,9.70
2023-01-29T11:30:39.472Z,6.78
2023-01-29T11:33:22.049Z,8.65
2023-01-29T11:38:25.460Z,5.47
2023-01-29T11:40:53.379Z,6.15
2023-01-29T11:43:28.209Z,5.95
2023-01-29T11:45:58.368Z,6.45
2023-01-29T11:48:48.044Z,6.07
2023-01-29T11:51:26.584Z,6.40
2023-01-29T11:54:02.180Z,6.03
2023-01-29T11:56:55.646Z,6.30
2023-01-29T11:59:44.266Z,7.15
2023-01-29T12:02:31.596Z,7.15
2023-01-29T12:05:02.744Z,6.57
2023-01-29T12:07:30.778Z,6.38
2023-01-29T12:10:00.010Z,6.80
2023-01-29T12:12:41.641Z,6.50
2023-01-29T12:15:24.949Z,6.47
2023-01-29T12:18:06.724Z,6.10
2023-01-29T12:20:45.025Z,6.72
2023-01-29T12:23:21.621Z,6.53
2023-01-29T12:26:07.391Z,6.68
2023-01-29T12:28:34.109Z,6.85
2023-01-29T12:31:12.537Z,6.50
2023-01-29T12:33:52.563Z,8.38
2023-01-29T12:36:25.692Z,5.53
2023-01-29T12:38:52.499Z,5.57
2023-01-29T12:41:41.196Z,6.25
2023-01-29T12:44:15.926Z,7.25
2023-01-29T12:46:50.434Z,6.22
2023-01-29T12:49:22.364Z,7.80
2023-01-29T12:52:22.928Z,7.45
2023-01-29T12:54:55.237Z,5.72
2023-01-29T13:00:23.853Z,6.85
2023-01-29T13:03:17.823Z,6.00
2023-01-29T13:05:55.447Z,5.63
2023-01-29T13:08:27.520Z,5.85
2023-01-29T13:10:57.735Z,6.07
2023-01-29T13:13:54.058Z,7.95
2023-01-29T13:16:26.001Z,7.63
2023-01-29T13:19:04.971Z,5.35
2023-01-29T13:21:38.080Z,4.63
2023-01-29T13:24:17.359Z,9.40
2023-01-29T13:26:48.714Z,4.75
2023-01-29T13:29:27.584Z,4.43
2023-01-29T13:32:00.108Z,5.15
2023-01-29T13:34:44.174Z,4.30
2023-01-29T13:37:18.607Z,4.45
2023-01-29T13:39:50.718Z,4.80
2023-01-29T13:42:33.478Z,4.68
2023-01-29T13:45:03.807Z,3.78
2023-01-29T13:47:37.796Z,4.25
2023-01-29T13:50:07.953Z,4.07
2023-01-29T13:52:54.512Z,4.63
2023-01-29T13:55:31.572Z,3.80
2023-01-29T13:58:15.844Z,4.20
2023-01-29T14:00:42.459Z,3.85
2023-01-29T14:03:11.581Z,4.45
2023-01-29T14:05:42.436Z,4.75
2023-01-29T14:08:09.063Z,4.10
2023-01-29T14:10:37.908Z,5.68
2023-01-29T14:13:04.586Z,4.20
2023-01-29T14:15:36.337Z,4.20
2023-01-29T14:18:09.173Z,6.65
2023-01-29T14:20:45.696Z,5.90
2023-01-29T14:23:31.277Z,5.78
2023-01-29T14:26:00.677Z,5.43
2023-01-29T14:28:30.625Z,4.45
2023-01-29T14:30:57.570Z,5.43
2023-01-29T14:33:25.812Z,6.22
2023-01-29T14:35:56.244Z,5.78
2023-01-29T14:38:24.976Z,5.85
2023-01-29T14:41:02.206Z,6.07
2023-01-29T14:43:28.912Z,5.40
2023-01-29T14:46:15.565Z,5.57
2023-01-29T14:48:52.081Z,4.78
2023-01-29T14:51:20.322Z,5.90
2023-01-29T14:54:18.596Z,5.50
2023-01-29T14:56:54.774Z,7.55
2023-01-29T14:59:46.008Z,6.03
2023-01-29T15:02:41.589Z,7.05
2023-01-29T15:05:19.486Z,6.55
2023-01-29T15:07:53.655Z,5.93
2023-01-29T15:10:35.648Z,6.90
2023-01-29T15:13:11.595Z,7.00
2023-01-29T15:15:48.992Z,6.72
2023-01-29T15:18:39.933Z,6.45
2023-01-29T15:21:17.504Z,7.40
2023-01-29T15:23:45.365Z,11.32
2023-01-29T15:26:24.754Z,7.65
2023-01-29T15:29:04.201Z,15.38
2023-01-29T15:31:32.251Z,9.52
2023-01-29T15:34:03.064Z,7.30
2023-01-29T15:36:31.696Z,7.55
2023-01-29T15:39:24.604Z,9.05
2023-01-29T15:42:11.397Z,7.70
2023-01-29T15:44:45.143Z,7.38
2023-01-29T15:47:13.032Z,12.35
2023-01-29T15:49:40.780Z,12.85
2023-01-29T15:52:15.782Z,8.18
2023-01-29T15:54:43.289Z,7.20
2023-01-29T15:57:26.134Z,7.57
2023-01-29T15:59:56.423Z,7.57
2023-01-29T16:02:38.081Z,9.88
2023-01-29T16:05:07.289Z,8.07
2023-01-29T16:07:35.826Z,8.35
2023-01-29T16:10:03.307Z,8.50
2023-01-29T16:12:32.222Z,10.25
2023-01-29T16:15:02.628Z,10.05
2023-01-29T16:17:36.744Z,9.25
2023-01-29T16:20:06.425Z,11.57
2023-01-29T16:22:36.419Z,11.13
2023-01-29T16:25:11.341Z,13.30
2023-01-29T16:27:38.451Z,11.23
2023-01-29T16:30:07.386Z,12.05
2023-01-29T16:32:34.118Z,15.63
2023-01-29T16:35:01.110Z,16.23
2023-01-29T16:37:31.985Z,18.02
2023-01-29T16:39:58.902Z,24.63
2023-01-29T16:42:30.781Z,24.60
2023-01-29T16:45:06.353Z,21.83
2023-01-29T16:47:37.326Z,23.80
2023-01-29T16:50:43.433Z,24.67
2023-01-29T16:53:23.101Z,19.35
2023-01-29T16:55:51.455Z,14.80
2023-01-29T16:58:28.369Z,15.00
2023-01-29T17:01:02.074Z,15.00
2023-01-29T17:03:33.127Z,16.48
2023-01-29T17:06:09.554Z,14.95
2023-01-29T17:08:37.854Z,15.45
2023-01-29T17:11:05.491Z,11.32
2023-01-29T17:13:38.039Z,75.70
2023-01-29T17:16:23.836Z,17.73
2023-01-29T17:18:50.558Z,25.83
2023-01-29T17:21:17.557Z,15.15
2023-01-29T17:23:44.336Z,16.33
2023-01-29T17:26:13.983Z,18.00
2023-01-29T17:28:41.644Z,16.27
2023-01-29T17:31:09.175Z,14.65
2023-01-29T17:33:39.900Z,14.98
2023-01-29T17:36:10.539Z,15.00
2023-01-29T17:38:37.827Z,15.02
2023-01-29T17:41:07.115Z,16.13
2023-01-29T17:43:34.204Z,14.77
2023-01-29T17:46:01.008Z,14.18
2023-01-29T17:48:29.993Z,14.55
2023-01-29T17:51:02.860Z,14.82
2023-01-29T17:53:44.288Z,14.35
2023-01-29T17:56:23.517Z,16.52
2023-01-29T17:58:50.187Z,15.15
2023-01-29T18:01:16.938Z,15.35
2023-01-29T18:03:43.772Z,14.77
2023-01-29T18:06:18.660Z,13.23
2023-01-29T18:08:45.433Z,15.25
2023-01-29T18:11:13.491Z,12.63
2023-01-29T18:13:41.804Z,16.00
2023-01-29T18:16:09.296Z,17.00
2023-01-29T18:18:36.069Z,15.80
2023-01-29T18:21:02.847Z,12.82
2023-01-29T18:23:31.164Z,12.13
2023-01-29T18:25:58.179Z,12.15
2023-01-29T18:28:25.250Z,12.88
2023-01-29T18:30:52.438Z,15.40
2023-01-29T18:33:19.328Z,22.92
2023-01-29T18:35:48.114Z,20.23
2023-01-29T18:38:15.162Z,15.95
2023-01-29T18:40:42.057Z,13.15
2023-01-29T18:43:08.724Z,13.93
2023-01-29T18:45:35.694Z,17.08
2023-01-29T18:48:02.389Z,15.95
2023-01-29T18:50:29.167Z,16.45
2023-01-29T18:52:56.164Z,13.95
2023-01-29T18:55:23.333Z,14.88
2023-01-29T18:58:31.504Z,16.92
2023-01-29T19:00:40.426Z,16.75
2023-01-29T19:03:07.166Z,15.77
2023-01-29T19:05:34.191Z,16.75
2023-01-29T19:08:01.847Z,17.95
2023-01-29T19:10:28.626Z,18.33
2023-01-29T19:12:55.294Z,15.68
2023-01-29T19:15:22.685Z,14.27
2023-01-29T19:17:50.868Z,15.63
2023-01-29T19:20:18.144Z,13.15
2023-01-29T19:22:44.860Z,13.68
2023-01-29T19:25:12.701Z,12.10
2023-01-29T19:27:39.535Z,13.48
2023-01-29T19:30:06.988Z,12.43
2023-01-29T19:32:33.803Z,12.55
2023-01-29T19:35:00.707Z,11.63
2023-01-29T19:37:28.510Z,13.88
2023-01-29T19:39:55.191Z,15.48
2023-01-29T19:42:22.171Z,17.30
2023-01-29T19:44:50.570Z,14.40
2023-01-29T19:47:17.271Z,14.10
2023-01-29T19:49:44.731Z,15.43
2023-01-29T19:52:38.527Z,14.88
2023-01-29T19:55:16.575Z,13.75
2023-01-29T19:57:43.399Z,14.85
2023-01-29T20:00:12.059Z,16.58
2023-01-29T20:02:38.859Z,18.10
2023-01-29T20:05:07.037Z,16.85
2023-01-29T20:07:35.825Z,16.35
2023-01-29T20:10:03.954Z,17.45
2023-01-29T20:12:30.665Z,15.23
2023-01-29T20:14:57.422Z,17.73
2023-01-29T20:17:24.116Z,14.85
2023-01-29T20:19:50.838Z,14.25
2023-01-29T20:22:17.449Z,14.68
2023-01-29T20:24:44.271Z,15.10
2023-01-29T20:27:11.471Z,14.38
2023-01-29T20:29:38.944Z,13.75
2023-01-29T20:32:08.006Z,13.38
2023-01-29T20:34:35.226Z,21.05
2023-01-29T20:37:02.047Z,14.93
2023-01-29T20:39:28.873Z,11.10
2023-01-29T20:41:57.164Z,14.80
2023-01-29T20:44:24.731Z,13.00
2023-01-29T20:46:51.904Z,14.02
2023-01-29T20:49:19.299Z,14.07
2023-01-29T20:51:46.115Z,15.27
2023-01-29T20:54:12.990Z,16.65
2023-01-29T20:56:43.666Z,12.30
2023-01-29T21:01:38.688Z,14.52
2023-01-29T21:04:05.457Z,15.27
2023-01-29T21:06:32.197Z,16.77
2023-01-29T21:08:58.824Z,17.75
2023-01-29T21:11:26.242Z,23.98
2023-01-29T21:13:57.537Z,18.40
2023-01-29T21:16:26.246Z,14.93
2023-01-29T21:18:58.939Z,13.05
2023-01-29T21:21:26.568Z,12.45
2023-01-29T21:23:53.731Z,12.70
2023-01-29T21:26:20.722Z,11.63
2023-01-29T21:28:47.432Z,11.80
2023-01-29T21:31:16.199Z,12.15
2023-01-29T21:33:43.463Z,12.20
2023-01-29T21:36:10.795Z,12.27
2023-01-29T21:38:37.817Z,12.23
2023-01-29T21:41:07.184Z,12.65
2023-01-29T21:43:33.958Z,13.13
2023-01-29T21:46:11.278Z,12.85
2023-01-29T21:48:39.344Z,13.80
2023-01-29T21:51:06.523Z,13.05
2023-01-29T21:53:33.335Z,13.40
2023-01-29T21:56:01.810Z,12.88
2023-01-29T21:58:29.067Z,14.13
2023-01-29T22:00:56.003Z,14.20
2023-01-29T22:03:23.105Z,13.18
2023-01-29T22:05:50.187Z,14.70
2023-01-29T22:08:17.906Z,14.35
2023-01-29T22:10:44.764Z,12.70
2023-01-29T22:13:11.682Z,12.50
2023-01-29T22:15:38.329Z,13.18
2023-01-29T22:18:05.111Z,14.40
2023-01-29T22:20:31.981Z,17.17
2023-01-29T22:23:01.767Z,17.83
2023-01-29T22:25:28.506Z,18.65
2023-01-29T22:27:55.459Z,14.77
2023-01-29T22:30:23.316Z,18.35
2023-01-29T22:32:50.553Z,20.45
2023-01-29T22:35:17.436Z,17.13
2023-01-29T22:37:45.026Z,19.98
2023-01-29T22:51:47.986Z,11.10
2023-01-29T22:54:15.531Z,12.88
2023-01-29T22:56:42.291Z,12.68
2023-01-29T22:59:10.237Z,13.30
2023-01-29T23:01:36.880Z,13.63
2023-01-29T23:04:03.649Z,13.55
2023-01-29T23:06:30.301Z,13.57
2023-01-29T23:08:57.046Z,13.57
2023-01-29T23:11:23.869Z,13.55
2023-01-29T23:13:55.429Z,12.23
2023-01-29T23:16:26.767Z,11.02
2023-01-29T23:18:55.635Z,11.82
2023-01-29T23:21:24.847Z,11.65
2023-01-29T23:24:01.300Z,12.65
2023-01-29T23:26:47.381Z,12.25
2023-01-29T23:29:14.506Z,11.70
2023-01-29T23:31:41.275Z,11.52
2023-01-29T23:34:07.968Z,13.98
2023-01-29T23:36:34.582Z,11.10
2023-01-29T23:39:01.251Z,12.13
2023-01-29T23:41:27.962Z,10.80
2023-01-29T23:43:54.662Z,11.13
2023-01-29T23:46:21.363Z,21.92
2023-01-29T23:48:48.109Z,26.33
2023-01-29T23:51:14.754Z,18.65
2023-01-29T23:53:41.490Z,15.70
2023-01-29T23:56:08.300Z,11.80
2023-01-29T23:58:35.246Z,10.68
